createdAt,value
2018-03-11T00:00:53.076Z,41.27
2018-03-11T00:03:20.599Z,37.87
2018-03-11T00:05:48.106Z,38.53
2018-03-11T00:08:15.647Z,45.77
2018-03-11T00:10:43.242Z,37.73
2018-03-11T00:13:11.533Z,34.77
2018-03-11T00:15:39.049Z,38.47
2018-03-11T00:18:06.772Z,39.77
2018-03-11T00:20:35.160Z,30.90
2018-03-11T00:23:03.446Z,33.23
2018-03-11T00:25:31.721Z,47.07
2018-03-11T00:28:00.014Z,43.83
2018-03-11T00:30:28.299Z,26.40
2018-03-11T00:32:56.601Z,34.90
2018-03-11T00:35:24.105Z,38.33
2018-03-11T00:37:51.613Z,33.17
2018-03-11T00:40:19.225Z,33.43
2018-03-11T00:42:47.469Z,29.07
2018-03-11T00:45:15.125Z,34.30
2018-03-11T00:47:42.682Z,37.10
2018-03-11T00:50:10.594Z,37.97
2018-03-11T00:52:38.326Z,32.93
2018-03-11T00:55:05.868Z,33.70
2018-03-11T00:57:34.153Z,31.00
2018-03-11T01:00:02.656Z,31.17
2018-03-11T01:02:30.239Z,32.73
2018-03-11T01:04:57.803Z,32.23
2018-03-11T01:07:26.086Z,31.10
2018-03-11T01:09:55.724Z,30.97
2018-03-11T01:12:23.240Z,37.00
2018-03-11T01:14:51.538Z,32.63
2018-03-11T01:17:19.051Z,32.80
2018-03-11T01:19:46.552Z,26.27
2018-03-11T01:22:14.049Z,32.60
2018-03-11T01:24:41.683Z,24.47
2018-03-11T01:27:09.202Z,22.30
2018-03-11T01:29:36.740Z,34.00
2018-03-11T01:32:04.255Z,30.87
2018-03-11T01:34:32.969Z,28.37
2018-03-11T01:37:00.482Z,29.80
2018-03-11T01:39:28.010Z,27.30
2018-03-11T01:42:00.784Z,27.57
2018-03-11T01:44:29.174Z,25.80
2018-03-11T01:46:56.666Z,23.93
2018-03-11T01:49:24.485Z,25.57
2018-03-11T01:51:52.789Z,24.90
2018-03-11T01:54:20.280Z,28.50
2018-03-11T01:56:47.774Z,25.23
2018-03-11T01:59:16.254Z,23.40
2018-03-11T02:01:44.522Z,26.60
2018-03-11T02:04:12.130Z,31.30
2018-03-11T02:06:39.712Z,23.73
2018-03-11T02:09:07.289Z,23.97
2018-03-11T02:11:34.807Z,22.40
2018-03-11T02:14:03.155Z,32.70
2018-03-11T02:16:30.878Z,24.43
2018-03-11T02:18:58.379Z,28.70
2018-03-11T02:21:25.866Z,33.90
2018-03-11T02:23:53.352Z,21.70
2018-03-11T02:26:21.612Z,26.20
2018-03-11T02:28:49.180Z,19.47
2018-03-11T02:31:17.447Z,28.13
2018-03-11T02:33:44.957Z,23.93
2018-03-11T02:36:12.640Z,23.70
2018-03-11T02:38:40.167Z,29.70
2018-03-11T02:41:08.421Z,23.23
2018-03-11T02:43:35.928Z,20.33
2018-03-11T02:46:03.446Z,23.27
2018-03-11T02:48:31.722Z,21.50
2018-03-11T02:50:59.236Z,21.20
2018-03-11T02:53:26.856Z,19.40
2018-03-11T02:55:54.382Z,21.60
2018-03-11T02:58:21.874Z,20.17
2018-03-11T03:00:49.387Z,20.13
2018-03-11T03:03:16.889Z,22.20
2018-03-11T03:05:44.405Z,22.40
2018-03-11T03:08:12.676Z,30.80
2018-03-11T03:10:40.954Z,23.80
2018-03-11T03:13:10.106Z,21.97
2018-03-11T03:15:37.620Z,23.87
2018-03-11T03:18:06.026Z,21.97
2018-03-11T03:20:33.529Z,21.70
2018-03-11T03:23:01.036Z,22.40
2018-03-11T03:25:29.335Z,26.03
2018-03-11T03:27:57.475Z,20.00
2018-03-11T03:30:24.997Z,24.90
2018-03-11T03:32:52.484Z,25.00
2018-03-11T03:35:20.046Z,23.63
2018-03-11T03:37:47.547Z,21.47
2018-03-11T03:40:15.818Z,28.20
2018-03-11T03:42:44.142Z,24.87
2018-03-11T03:45:11.636Z,26.90
2018-03-11T03:47:39.140Z,21.87
2018-03-11T03:50:07.451Z,20.67
2018-03-11T03:52:34.980Z,22.60
2018-03-11T03:55:03.279Z,24.03
2018-03-11T03:57:31.164Z,23.73
2018-03-11T03:59:58.803Z,20.90
2018-03-11T04:02:27.081Z,21.33
2018-03-11T04:04:55.410Z,25.43
2018-03-11T04:07:22.916Z,21.03
2018-03-11T04:09:51.210Z,25.87
2018-03-11T04:12:20.244Z,24.07
2018-03-11T04:14:47.785Z,27.70
2018-03-11T04:17:15.373Z,20.00
2018-03-11T04:19:42.916Z,21.33
2018-03-11T04:22:10.400Z,25.23
2018-03-11T04:24:37.902Z,22.30
2018-03-11T04:27:05.440Z,20.07
2018-03-11T04:29:32.939Z,19.70
2018-03-11T04:32:00.443Z,22.37
2018-03-11T04:34:27.963Z,19.77
2018-03-11T04:36:55.481Z,25.30
2018-03-11T04:39:24.119Z,23.00
2018-03-11T04:41:52.409Z,20.37
2018-03-11T04:44:20.680Z,23.23
2018-03-11T04:46:48.961Z,18.57
2018-03-11T04:49:16.458Z,25.20
2018-03-11T04:51:44.080Z,25.47
2018-03-11T04:54:11.588Z,26.43
2018-03-11T04:56:39.138Z,23.87
2018-03-11T04:59:06.658Z,22.50
2018-03-11T05:01:34.138Z,22.73
2018-03-11T05:04:02.433Z,25.70
2018-03-11T05:06:30.771Z,25.57
2018-03-11T05:08:58.273Z,27.00
2018-03-11T05:11:26.555Z,32.20
2018-03-11T05:13:55.000Z,28.80
2018-03-11T05:16:22.544Z,25.43
2018-03-11T05:18:50.080Z,24.40
2018-03-11T05:21:17.602Z,23.93
2018-03-11T05:23:45.121Z,24.27
2018-03-11T05:26:13.506Z,25.83
2018-03-11T05:28:41.000Z,29.23
2018-03-11T05:31:08.506Z,21.43
2018-03-11T05:33:36.796Z,32.13
2018-03-11T05:36:05.152Z,23.80
2018-03-11T05:38:33.410Z,25.50
2018-03-11T05:41:00.972Z,25.33
2018-03-11T05:43:28.464Z,24.00
2018-03-11T05:45:56.044Z,21.50
2018-03-11T05:48:24.320Z,33.00
2018-03-11T05:50:52.622Z,23.23
2018-03-11T05:53:20.137Z,22.23
2018-03-11T05:55:47.734Z,31.20
2018-03-11T05:58:16.098Z,22.57
2018-03-11T06:00:43.614Z,26.47
2018-03-11T06:03:11.108Z,22.40
2018-03-11T06:05:38.604Z,26.13
2018-03-11T06:08:06.928Z,23.63
2018-03-11T06:10:34.470Z,27.60
2018-03-11T06:13:02.767Z,25.83
2018-03-11T06:15:30.351Z,20.97
2018-03-11T06:17:57.962Z,21.63
2018-03-11T06:20:26.234Z,28.20
2018-03-11T06:22:53.752Z,23.80
2018-03-11T06:25:21.281Z,21.83
2018-03-11T06:27:48.822Z,24.13
2018-03-11T06:30:17.320Z,23.87
2018-03-11T06:32:44.710Z,26.30
2018-03-11T06:35:12.212Z,23.43
2018-03-11T06:37:39.734Z,24.00
2018-03-11T06:40:07.236Z,30.03
2018-03-11T06:42:34.780Z,26.50
2018-03-11T06:45:02.494Z,20.73
2018-03-11T06:47:30.770Z,22.43
2018-03-11T06:49:59.085Z,20.73
2018-03-11T06:52:26.586Z,23.33
2018-03-11T06:54:54.082Z,30.40
2018-03-11T06:57:22.362Z,21.80
2018-03-11T06:59:50.652Z,26.63
2018-03-11T07:02:18.959Z,22.50
2018-03-11T07:04:46.499Z,26.20
2018-03-11T07:07:14.774Z,24.60
2018-03-11T07:09:43.072Z,25.00
2018-03-11T07:12:10.601Z,25.80
2018-03-11T07:14:38.118Z,28.03
2018-03-11T07:17:05.618Z,26.70
2018-03-11T07:19:33.156Z,26.70
2018-03-11T07:22:00.704Z,36.20
2018-03-11T07:24:29.161Z,26.50
2018-03-11T07:26:57.449Z,25.07
2018-03-11T07:29:25.747Z,27.80
2018-03-11T07:31:54.154Z,30.73
2018-03-11T07:34:21.653Z,32.50
2018-03-11T07:36:49.982Z,29.47
2018-03-11T07:39:17.508Z,27.60
2018-03-11T07:41:45.788Z,27.80
2018-03-11T07:44:14.070Z,34.10
2018-03-11T07:46:41.580Z,32.47
2018-03-11T07:49:09.079Z,33.93
2018-03-11T07:51:37.350Z,29.00
2018-03-11T07:54:04.921Z,36.97
2018-03-11T07:56:32.437Z,37.97
2018-03-11T07:59:00.159Z,31.30
2018-03-11T08:01:27.698Z,31.40
2018-03-11T08:03:55.254Z,38.83
2018-03-11T08:06:22.764Z,35.40
2018-03-11T08:08:50.319Z,43.57
2018-03-11T08:11:18.821Z,31.30
2018-03-11T08:13:47.093Z,28.33
2018-03-11T08:16:15.800Z,32.73
2018-03-11T08:18:44.161Z,27.07
2018-03-11T08:21:12.436Z,30.77
2018-03-11T08:23:41.535Z,30.33
2018-03-11T08:26:09.039Z,32.73
2018-03-11T08:28:36.573Z,36.83
2018-03-11T08:31:04.837Z,32.30
2018-03-11T08:33:32.350Z,29.90
2018-03-11T08:35:59.928Z,25.83
2018-03-11T08:38:27.437Z,25.63
2018-03-11T08:40:55.700Z,27.40
2018-03-11T08:43:23.241Z,27.17
2018-03-11T08:45:50.742Z,26.87
2018-03-11T08:48:19.832Z,30.73
2018-03-11T08:50:47.350Z,32.73
2018-03-11T08:53:14.875Z,32.33
2018-03-11T08:55:42.401Z,39.33
2018-03-11T08:58:09.914Z,31.10
2018-03-11T09:00:38.169Z,29.87
2018-03-11T09:03:06.584Z,33.57
2018-03-11T09:05:34.845Z,31.27
2018-03-11T09:08:02.387Z,30.90
2018-03-11T09:10:29.965Z,32.43
2018-03-11T09:12:58.595Z,27.23
2018-03-11T09:17:50.171Z,28.90
2018-03-11T09:20:18.188Z,32.60
2018-03-11T09:22:46.445Z,31.63
2018-03-11T09:25:13.951Z,32.57
2018-03-11T09:27:41.527Z,34.60
2018-03-11T09:30:09.064Z,32.00
2018-03-11T09:32:37.451Z,32.20
2018-03-11T09:35:05.722Z,31.90
2018-03-11T09:37:33.220Z,29.77
2018-03-11T09:40:00.736Z,31.07
2018-03-11T09:42:28.268Z,29.27
2018-03-11T09:44:55.830Z,27.63
2018-03-11T09:47:23.358Z,26.13
2018-03-11T09:49:51.636Z,33.20
2018-03-11T09:52:19.898Z,24.63
2018-03-11T09:54:47.530Z,31.80
2018-03-11T09:57:15.044Z,28.43
2018-03-11T09:59:43.335Z,26.17
2018-03-11T10:02:11.612Z,32.20
2018-03-11T10:04:39.898Z,31.07
2018-03-11T10:07:07.410Z,29.13
2018-03-11T10:09:34.918Z,27.10
2018-03-11T10:12:03.250Z,29.17
2018-03-11T10:14:30.777Z,31.77
2018-03-11T10:16:58.288Z,25.53
2018-03-11T10:19:26.432Z,26.30
2018-03-11T10:21:53.974Z,30.20
2018-03-11T10:24:21.487Z,26.50
2018-03-11T10:26:48.995Z,21.53
2018-03-11T10:29:17.327Z,34.73
2018-03-11T10:31:45.402Z,24.53
2018-03-11T10:34:13.028Z,19.27
2018-03-11T10:36:40.695Z,18.27
2018-03-11T10:39:09.023Z,13.43
2018-03-11T10:41:36.597Z,15.73
2018-03-11T10:44:04.137Z,21.87
2018-03-11T10:46:31.636Z,14.20
2018-03-11T10:49:00.691Z,14.50
2018-03-11T10:51:28.176Z,14.20
2018-03-11T10:53:55.782Z,18.33
2018-03-11T10:56:24.046Z,20.07
2018-03-11T10:58:51.574Z,14.67
2018-03-11T11:01:20.718Z,16.70
2018-03-11T11:03:52.974Z,14.07
2018-03-11T11:06:20.511Z,12.37
2018-03-11T11:08:48.024Z,16.10
2018-03-11T11:11:16.298Z,13.20
2018-03-11T11:13:43.836Z,12.10
2018-03-11T11:16:11.335Z,12.60
2018-03-11T11:18:39.604Z,15.43
2018-03-11T11:21:07.114Z,12.10
2018-03-11T11:23:34.637Z,17.43
2018-03-11T11:26:03.041Z,11.40
2018-03-11T11:28:30.541Z,15.27
2018-03-11T11:30:58.348Z,11.33
2018-03-11T11:33:27.838Z,14.73
2018-03-11T11:35:55.372Z,12.83
2018-03-11T11:38:22.874Z,14.50
2018-03-11T11:40:50.492Z,13.97
2018-03-11T11:43:18.012Z,16.33
2018-03-11T11:45:46.469Z,12.87
2018-03-11T11:48:14.531Z,17.43
2018-03-11T11:50:42.043Z,21.80
2018-03-11T11:53:10.342Z,13.63
2018-03-11T11:55:38.098Z,14.23
2018-03-11T11:58:06.390Z,14.53
2018-03-11T12:00:33.917Z,14.40
2018-03-11T12:03:01.408Z,16.63
2018-03-11T12:05:29.709Z,15.77
2018-03-11T12:07:57.275Z,16.67
2018-03-11T12:10:24.770Z,16.00
2018-03-11T12:12:52.306Z,16.97
2018-03-11T12:15:19.791Z,13.00
2018-03-11T12:17:47.296Z,13.77
2018-03-11T12:20:15.664Z,14.27
2018-03-11T12:22:43.159Z,12.77
2018-03-11T12:25:11.410Z,16.73
2018-03-11T12:27:38.930Z,12.67
2018-03-11T12:30:06.552Z,14.23
2018-03-11T12:32:34.957Z,17.33
2018-03-11T12:35:02.459Z,13.97
2018-03-11T12:37:29.972Z,15.10
2018-03-11T12:39:59.087Z,14.50
2018-03-11T12:42:26.618Z,16.80
2018-03-11T12:44:54.177Z,12.73
2018-03-11T12:47:21.669Z,11.60
2018-03-11T12:49:49.189Z,10.70
2018-03-11T12:52:16.704Z,13.90
2018-03-11T12:54:44.200Z,11.27
2018-03-11T12:57:11.982Z,16.00
2018-03-11T12:59:39.486Z,10.10
2018-03-11T13:02:07.830Z,11.70
2018-03-11T13:04:35.391Z,15.10
2018-03-11T13:07:03.752Z,10.77
2018-03-11T13:09:31.323Z,11.43
2018-03-11T13:11:59.021Z,10.00
2018-03-11T13:14:26.512Z,11.70
2018-03-11T13:16:54.056Z,11.10
2018-03-11T13:19:22.322Z,9.50
2018-03-11T13:21:49.840Z,16.90
2018-03-11T13:24:17.408Z,13.60
2018-03-11T13:26:44.938Z,9.23
2018-03-11T13:29:13.220Z,10.23
2018-03-11T13:31:41.505Z,8.53
2018-03-11T13:34:31.154Z,10.30
2018-03-11T13:36:58.685Z,10.93
2018-03-11T13:39:38.032Z,8.17
2018-03-11T13:42:06.241Z,18.80
2018-03-11T13:44:34.576Z,9.10
2018-03-11T13:47:07.015Z,11.60
2018-03-11T13:49:34.625Z,11.20
2018-03-11T13:52:14.073Z,9.47
2018-03-11T13:54:41.654Z,13.03
2018-03-11T14:00:10.727Z,8.53
2018-03-11T14:02:38.544Z,10.23
2018-03-11T14:05:06.844Z,8.63
2018-03-11T14:07:34.378Z,11.80
2018-03-11T14:10:01.940Z,9.87
2018-03-11T14:12:30.218Z,15.57
2018-03-11T14:14:58.504Z,8.93
2018-03-11T14:17:26.768Z,11.13
2018-03-11T14:19:54.280Z,7.93
2018-03-11T14:22:21.799Z,11.17
2018-03-11T14:24:49.378Z,10.47
2018-03-11T14:27:17.677Z,10.87
2018-03-11T14:29:45.254Z,13.10
2018-03-11T14:32:12.790Z,15.00
2018-03-11T14:34:41.104Z,8.13
2018-03-11T14:37:08.596Z,8.90
2018-03-11T14:39:36.163Z,8.50
2018-03-11T14:42:03.655Z,7.37
2018-03-11T14:44:31.958Z,12.40
2018-03-11T14:47:00.250Z,9.90
2018-03-11T14:49:27.790Z,7.70
2018-03-11T14:51:55.449Z,12.23
2018-03-11T14:54:22.942Z,10.43
2018-03-11T14:56:50.756Z,9.87
2018-03-11T14:59:18.352Z,16.33
2018-03-11T15:01:46.624Z,13.40
2018-03-11T15:04:14.142Z,11.03
2018-03-11T15:06:41.640Z,8.20
2018-03-11T15:09:09.144Z,8.87
2018-03-11T15:11:36.650Z,13.53
2018-03-11T15:14:04.232Z,10.77
2018-03-11T15:16:31.807Z,7.37
2018-03-11T15:18:59.356Z,9.17
2018-03-11T15:21:27.691Z,14.50
2018-03-11T15:23:56.017Z,11.47
2018-03-11T15:26:23.529Z,11.90
2018-03-11T15:28:51.105Z,16.03
2018-03-11T15:31:18.601Z,13.97
2018-03-11T15:33:46.144Z,7.47
2018-03-11T15:36:13.663Z,12.20
2018-03-11T15:38:42.168Z,12.17
2018-03-11T15:41:09.702Z,12.70
2018-03-11T15:43:37.310Z,10.57
2018-03-11T15:46:04.854Z,9.17
2018-03-11T15:48:32.383Z,16.50
2018-03-11T15:50:59.904Z,9.83
2018-03-11T15:53:27.420Z,12.10
2018-03-11T15:55:55.742Z,11.03
2018-03-11T15:58:23.327Z,8.67
2018-03-11T16:00:51.082Z,8.57
2018-03-11T16:03:19.293Z,10.77
2018-03-11T16:05:47.922Z,10.30
2018-03-11T16:08:16.657Z,11.27
2018-03-11T16:10:44.242Z,9.70
2018-03-11T16:15:39.237Z,12.93
2018-03-11T16:18:06.768Z,14.50
2018-03-11T16:20:35.035Z,9.47
2018-03-11T16:23:02.534Z,8.80
2018-03-11T16:25:30.197Z,10.47
2018-03-11T16:27:57.640Z,7.80
2018-03-11T16:30:25.909Z,11.93
2018-03-11T16:32:53.641Z,8.27
2018-03-11T16:35:21.188Z,8.53
2018-03-11T16:37:48.684Z,8.63
2018-03-11T16:40:16.233Z,11.67
2018-03-11T16:42:43.862Z,8.70
2018-03-11T16:45:11.389Z,7.80
2018-03-11T16:47:38.906Z,7.83
2018-03-11T16:50:06.454Z,7.33
2018-03-11T16:52:33.996Z,9.70
2018-03-11T16:55:02.612Z,8.50
2018-03-11T16:57:30.161Z,11.23
2018-03-11T16:59:58.631Z,9.70
2018-03-11T17:02:26.152Z,7.83
2018-03-11T17:04:53.704Z,9.83
2018-03-11T17:07:21.240Z,15.87
2018-03-11T17:09:48.824Z,11.57
2018-03-11T17:12:16.358Z,11.70
2018-03-11T17:14:43.898Z,12.87
2018-03-11T17:17:11.580Z,18.70
2018-03-11T17:19:39.142Z,12.07
2018-03-11T17:22:06.695Z,11.90
2018-03-11T17:24:34.262Z,13.13
2018-03-11T17:27:02.030Z,11.63
2018-03-11T17:29:29.539Z,13.90
2018-03-11T17:31:57.098Z,16.23
2018-03-11T17:34:24.679Z,12.30
2018-03-11T17:36:52.176Z,11.30
2018-03-11T17:39:19.688Z,13.50
2018-03-11T17:41:47.202Z,11.57
2018-03-11T17:44:14.714Z,12.47
2018-03-11T17:46:43.036Z,14.57
2018-03-11T17:49:10.517Z,12.70
2018-03-11T17:51:38.144Z,12.80
2018-03-11T17:54:05.734Z,21.20
2018-03-11T17:56:33.240Z,12.80
2018-03-11T17:59:01.758Z,13.27
2018-03-11T18:01:29.313Z,13.40
2018-03-11T18:03:56.844Z,13.30
2018-03-11T18:06:25.108Z,12.53
2018-03-11T18:08:52.624Z,12.97
2018-03-11T18:11:20.138Z,17.07
2018-03-11T18:13:47.699Z,23.00
2018-03-11T18:16:15.319Z,17.23
2018-03-11T18:18:42.972Z,23.60
2018-03-11T18:21:10.496Z,19.47
2018-03-11T18:23:39.384Z,19.77
2018-03-11T18:26:06.881Z,15.43
2018-03-11T18:28:35.155Z,16.37
2018-03-11T18:31:03.434Z,19.40
2018-03-11T18:33:31.703Z,16.80
2018-03-11T18:35:59.985Z,16.80
2018-03-11T18:38:28.268Z,20.10
2018-03-11T18:40:56.590Z,14.70
2018-03-11T18:43:24.163Z,16.43
2018-03-11T18:45:52.637Z,19.20
2018-03-11T18:48:20.170Z,15.87
2018-03-11T18:50:48.440Z,14.97
2018-03-11T18:53:16.742Z,14.57
2018-03-11T18:55:44.276Z,19.07
2018-03-11T18:58:11.827Z,13.80
2018-03-11T19:00:39.325Z,20.90
2018-03-11T19:03:07.056Z,16.57
2018-03-11T19:05:34.589Z,16.33
2018-03-11T19:08:02.148Z,13.73
2018-03-11T19:10:29.676Z,18.70
2018-03-11T19:12:58.000Z,14.57
2018-03-11T19:15:25.534Z,14.87
2018-03-11T19:17:53.121Z,17.07
2018-03-11T19:20:20.673Z,20.03
2018-03-11T19:22:49.000Z,16.63
2018-03-11T19:25:16.665Z,20.00
2018-03-11T19:27:44.188Z,15.87
2018-03-11T19:30:13.962Z,28.73
2018-03-11T19:32:42.361Z,16.63
2018-03-11T19:35:10.844Z,13.83
2018-03-11T19:37:39.121Z,15.50
2018-03-11T19:40:07.448Z,20.37
2018-03-11T19:42:34.974Z,18.90
2018-03-11T19:45:03.248Z,20.70
2018-03-11T19:47:31.302Z,18.97
2018-03-11T19:49:58.839Z,14.20
2018-03-11T19:52:26.337Z,16.17
2018-03-11T19:54:53.926Z,16.47
2018-03-11T19:57:22.385Z,19.53
2018-03-11T19:59:50.784Z,18.33
2018-03-11T20:02:18.320Z,19.93
2018-03-11T20:04:45.843Z,17.50
2018-03-11T20:07:13.353Z,19.37
2018-03-11T20:09:40.857Z,17.40
2018-03-11T20:12:10.013Z,19.50
2018-03-11T20:14:37.516Z,20.77
2018-03-11T20:17:05.855Z,18.40
2018-03-11T20:19:33.576Z,22.13
2018-03-11T20:22:01.155Z,19.70
2018-03-11T20:24:28.694Z,21.70
2018-03-11T20:26:57.550Z,17.50
2018-03-11T20:29:25.080Z,17.30
2018-03-11T20:31:52.592Z,22.70
2018-03-11T20:34:21.653Z,28.50
2018-03-11T20:36:49.278Z,76.00
2018-03-11T20:39:16.812Z,17.23
2018-03-11T20:41:44.319Z,19.60
2018-03-11T20:44:13.485Z,20.87
2018-03-11T20:46:41.056Z,20.60
2018-03-11T20:49:08.572Z,33.77
2018-03-11T20:51:36.157Z,19.10
2018-03-11T20:54:03.682Z,16.63
2018-03-11T20:56:31.244Z,19.43
2018-03-11T20:58:58.864Z,22.27
2018-03-11T21:01:26.389Z,19.10
2018-03-11T21:03:54.260Z,21.20
2018-03-11T21:06:21.778Z,18.03
2018-03-11T21:08:49.288Z,20.37
2018-03-11T21:11:16.837Z,20.23
2018-03-11T21:13:44.408Z,26.77
2018-03-11T21:16:11.982Z,21.47
2018-03-11T21:18:39.545Z,17.10
2018-03-11T21:21:07.306Z,18.30
2018-03-11T21:23:34.938Z,19.00
2018-03-11T21:26:02.617Z,22.57
2018-03-11T21:28:30.934Z,19.67
2018-03-11T21:30:58.621Z,16.87
2018-03-11T21:33:26.164Z,24.63
2018-03-11T21:35:53.758Z,19.93
2018-03-11T21:38:21.314Z,18.80
2018-03-11T21:40:48.842Z,18.13
2018-03-11T21:43:16.392Z,18.80
2018-03-11T21:45:45.053Z,18.00
2018-03-11T21:48:12.578Z,19.47
2018-03-11T21:50:40.132Z,21.00
2018-03-11T21:53:07.749Z,19.47
2018-03-11T21:55:35.273Z,17.57
2018-03-11T21:58:02.851Z,18.90
2018-03-11T22:00:31.297Z,24.60
2018-03-11T22:02:58.932Z,20.33
2018-03-11T22:05:26.495Z,17.70
2018-03-11T22:07:54.767Z,19.40
2018-03-11T22:10:22.319Z,19.57
2018-03-11T22:12:49.840Z,20.77
2018-03-11T22:15:17.367Z,26.70
2018-03-11T22:17:44.869Z,20.50
2018-03-11T22:20:12.394Z,20.63
2018-03-11T22:22:39.872Z,20.37
2018-03-11T22:25:08.150Z,21.90
2018-03-11T22:27:36.432Z,24.40
2018-03-11T22:30:04.733Z,21.87
2018-03-11T22:32:32.471Z,19.10
2018-03-11T22:34:59.950Z,19.90
2018-03-11T22:37:28.227Z,20.73
2018-03-11T22:39:56.489Z,22.60
2018-03-11T22:42:24.761Z,18.03
2018-03-11T22:44:53.038Z,21.70
2018-03-11T22:47:20.552Z,17.93
2018-03-11T22:49:48.184Z,21.20
2018-03-11T22:52:15.698Z,18.90
2018-03-11T22:54:43.271Z,21.03
2018-03-11T22:57:10.984Z,23.20
2018-03-11T22:59:39.289Z,19.40
2018-03-11T23:02:06.828Z,19.60
2018-03-11T23:04:35.090Z,21.47
2018-03-11T23:07:03.365Z,19.00
2018-03-11T23:09:30.882Z,24.53
2018-03-11T23:11:58.421Z,21.77
2018-03-11T23:14:26.745Z,18.07
2018-03-11T23:16:54.250Z,26.30
2018-03-11T23:19:23.797Z,19.47
2018-03-11T23:21:52.053Z,21.17
2018-03-11T23:24:20.627Z,18.60
2018-03-11T23:26:48.988Z,19.80
2018-03-11T23:29:16.475Z,16.97
2018-03-11T23:31:43.974Z,27.30
2018-03-11T23:34:11.471Z,27.27
2018-03-11T23:36:39.104Z,20.40
2018-03-11T23:39:06.596Z,21.33
2018-03-11T23:41:34.111Z,16.50
2018-03-11T23:44:01.695Z,19.60
2018-03-11T23:46:29.183Z,22.07
2018-03-11T23:48:57.283Z,24.80
2018-03-11T23:51:24.783Z,21.33
2018-03-11T23:53:53.061Z,21.33
2018-03-11T23:56:21.379Z,20.77
2018-03-11T23:58:48.895Z,20.83
